Aérodrome :







RETROUVEZ-NOUS SUR...

 
LOGIN :

S'inscrire | Disclaimer

   EN    FR    IT 

 









Légende :    VFR   VFR Marginal   IFR   IFR Intensif   IFR Très Intensif
Visi : 
Plafond : 
>= 8 km
>= 3000ft
5 à 8 km
1000 à 3000 ft
1500m à 5 km
500 à 1000 ft
800 à 1500m
200 à 500 ft
< 800m
< 200 ft
Symboles :   Orages  Brouillard  Fortes neiges  Fortes précipitations  Vent > 20 kt






- Altitude de l'aérodrome : 92 ft
- Code IATA : YZX


CYZX - CFB Greenwood

DERNIER METAR :
  • 261600Z 07010KT 15SM SCT075 07/02 A3003 RMK AC3 SLP170

METARs EXPIRÉS :
  • 261500Z 08008KT 15SM SCT080 06/02 A3002 RMK AC4 SLP168
  • 261400Z 08003KT 15SM SCT098 04/02 A3002 RMK AC3 SLP167

TAF TAF CYZX
Valide du 26 à 12h jusqu'au 27 à 12h UTC


261130Z 2612/2712 VRB03KT P6SM OVC120
TEMPO 2612/2614 6SM BR SCT005 BKN015
PROB30 2612/2613 1/2SM FG VV003
FM261400 04005KT P6SM BKN020
TEMPO 2614/2702 SCT025 BKN060 BKN120
FM270200 06008KT P6SM BKN012 OVC060 RMK NXT FCST BY 261800Z



MET'MAP, la Météo Aéronautique d'un coup d'oeil ! - Copyright ORBIFLY Décembre 2007 - Disclaimer

ORBIFLY MET'MAP TEAM :

Programmation & Développement : Alexandra Zaïnal
Sur une idée originale de : Baudouin d'Aumeries
Assistance à la programmation : Marc-Olivier Méhu
Soutien technique & logistique : Manuel Goepfert

Contact : metmap@orbifly.com




SOURCES & CREDITS :

   NOAA